Date,TemperatureHighF,TemperatureAvgF,TemperatureLowF,DewpointHighF,DewpointAvgF,DewpointLowF,HumidityHigh,HumidityAvg,HumidityLow,PressureMaxIn,PressureMinIn,WindSpeedMaxMPH,WindSpeedAvgMPH,GustSpeedMaxMPH,PrecipitationSumIn
2013-1-1,31,18,8,-100,-100,-100,0,0,100,0.00,40.00,5,2,0,0.00
2013-1-2,33,26,18,-100,-100,-100,0,0,100,0.00,40.00,11,4,0,0.00
2013-1-3,38,21,7,-100,-100,-100,0,0,100,0.00,40.00,5,1,0,0.00
2013-1-4,46,26,11,-100,-100,-100,0,0,100,0.00,40.00,4,1,0,0.00
2013-1-5,41,28,18,-100,-100,-100,0,0,100,0.00,40.00,6,2,0,0.00
2013-1-6,47,26,8,-100,-100,-100,0,0,100,0.00,40.00,3,1,0,0.00
2013-1-7,53,34,25,-100,-100,-100,0,0,100,0.00,40.00,5,2,0,0.00
2013-1-8,55,38,27,-100,-100,-100,0,0,100,0.00,40.00,5,2,0,0.00
2013-1-9,51,34,22,-100,-100,-100,0,0,100,0.00,40.00,3,2,0,0.00
2013-1-10,38,30,20,-100,-100,-100,0,0,100,0.00,40.00,3,2,0,0.00
2013-1-11,37,24,9,-100,-100,-100,0,0,100,0.00,40.00,10,4,0,0.00
2013-1-12,16,9,1,-100,-100,-100,0,0,100,0.00,40.00,6,2,0,0.00
2013-1-14,18,8,1,-100,-100,-100,0,0,100,0.00,40.00,4,3,0,0.00
2013-1-15,32,18,-2,-100,-100,-100,0,0,100,0.00,40.00,4,2,0,0.00
2013-1-16,56,41,30,-100,-100,-100,0,0,100,0.00,40.00,7,3,0,0.00
2013-1-17,50,32,18,-100,-100,-100,0,0,100,0.00,40.00,5,2,0,0.00
2013-1-18,60,45,21,-100,-100,-100,0,0,100,0.00,40.00,8,3,0,0.00
2013-1-19,56,41,28,-100,-100,-100,0,0,100,0.00,40.00,7,3,0,0.00
2013-1-20,47,33,22,-100,-100,-100,0,0,100,0.00,40.00,5,2,0,0.00
2013-1-21,54,33,15,-100,-100,-100,0,0,100,0.00,40.00,7,2,0,0.00
2013-1-22,58,39,23,-100,-100,-100,0,0,100,0.00,40.00,4,2,0,0.00
2013-1-23,61,40,25,-100,-100,-100,0,0,100,0.00,40.00,3,2,0,0.00
2013-1-24,63,43,24,-100,-100,-100,0,0,100,0.00,40.00,9,3,0,0.00
2013-1-25,57,40,28,-100,-100,-100,0,0,100,0.00,40.00,4,2,0,0.00
2013-1-26,41,33,28,-100,-100,-100,0,0,100,0.00,40.00,2,1,0,0.00
2013-1-27,59,45,33,-100,-100,-100,0,0,100,0.00,40.00,10,3,0,0.00
2013-1-28,49,37,28,-100,-100,-100,0,0,100,0.00,40.00,13,4,0,0.00
2013-1-29,34,26,21,-100,-100,-100,0,0,100,0.00,40.00,11,4,0,0.00
2013-1-30,42,26,12,-100,-100,-100,0,0,100,0.00,40.00,11,3,0,0.00
2013-1-31,42,32,23,-100,-100,-100,0,0,100,0.00,40.00,6,3,0,0.00
2013-2-1,48,34,21,-100,-100,-100,0,0,100,0.00,40.00,14,4,0,0.00
2013-2-2,56,38,21,-100,-100,-100,0,0,100,0.00,40.00,9,3,0,0.00
2013-2-3,54,38,23,-100,-100,-100,0,0,100,0.00,40.00,4,2,0,0.00
2013-2-4,55,38,25,-100,-100,-100,0,0,100,0.00,40.00,4,2,0,0.00
2013-2-5,54,40,24,-100,-100,-100,0,0,100,0.00,40.00,8,3,0,0.00
2013-2-6,53,42,31,-100,-100,-100,0,0,100,0.00,40.00,10,4,0,0.00
2013-2-7,48,34,22,-100,-100,-100,0,0,100,0.00,40.00,7,3,0,0.00
2013-2-8,51,33,17,-100,-100,-100,0,0,100,0.00,40.00,3,2,0,0.00
2013-2-9,41,31,23,-100,-100,-100,0,0,100,0.00,40.00,7,4,0,0.00
2013-2-10,35,30,22,-100,-100,-100,0,0,100,0.00,40.00,12,8,0,0.00
2013-2-11,30,25,18,-100,-100,-100,0,0,100,0.00,40.00,6,3,0,0.00
2013-2-12,46,28,10,-100,-100,-100,0,0,100,0.00,40.00,5,3,0,0.00
2013-2-13,50,27,17,-100,-100,-100,0,0,100,0.00,40.00,9,2,0,0.00
2013-2-14,32,28,25,-100,-100,-100,0,0,100,0.00,40.00,8,5,0,0.00
2013-2-15,40,29,19,-100,-100,-100,0,0,100,0.00,40.00,14,6,0,0.00
2013-2-16,57,37,17,-100,-100,-100,0,0,100,0.00,40.00,9,4,0,0.00
2013-2-17,61,41,26,-100,-100,-100,0,0,100,0.00,40.00,12,5,0,0.00
2013-2-18,41,33,23,-100,-100,-100,0,0,100,0.00,40.00,10,6,0,0.00
2013-2-19,40,27,16,-100,-100,-100,0,0,100,0.00,40.00,4,2,0,0.00
2013-2-20,37,25,18,-100,-100,-100,0,0,100,0.00,40.00,5,3,0,0.00
2013-2-21,31,22,15,-100,-100,-100,0,0,100,0.00,40.00,6,3,0,0.00
2013-2-22,33,21,11,-100,-100,-100,0,0,100,0.00,40.00,7,2,0,0.00
2013-2-23,41,28,14,-100,-100,-100,0,0,100,0.00,40.00,5,2,0,0.00
2013-2-24,29,27,17,-100,-100,-100,0,0,100,0.00,40.00,11,6,0,0.00
2013-2-25,34,21,9,-100,-100,-100,0,0,100,0.00,40.00,6,3,0,0.00
2013-2-26,37,28,18,-100,-100,-100,0,0,100,0.00,40.00,12,6,0,0.00
2013-2-27,38,30,21,-100,-100,-100,0,0,100,0.00,40.00,9,5,0,0.00
2013-2-28,41,31,14,-100,-100,-100,0,0,100,0.00,40.00,8,4,0,0.00
2013-3-1,42,35,28,-100,-100,-100,0,0,100,0.00,40.00,8,4,0,0.00
2013-3-2,57,43,27,-100,-100,-100,0,0,100,0.00,40.00,7,3,0,0.00
2013-3-3,63,49,35,-100,-100,-100,0,0,100,0.00,40.00,8,3,0,0.00
2013-3-4,46,30,23,-100,-100,-100,0,0,100,0.00,40.00,12,5,0,0.00
2013-3-5,40,27,13,-100,-100,-100,0,0,100,0.00,40.00,8,3,0,0.00
2013-3-6,53,37,18,-100,-100,-100,0,0,100,0.00,40.00,7,3,0,0.00
2013-3-7,64,46,29,-100,-100,-100,0,0,100,0.00,40.00,6,3,0,0.00
2013-3-8,49,39,31,-100,-100,-100,0,0,100,0.00,40.00,3,2,0,0.00
2013-3-9,40,35,31,-100,-100,-100,0,0,100,0.00,40.00,14,7,0,0.00
2013-3-10,50,40,30,-100,-100,-100,0,0,100,0.00,40.00,15,8,0,0.00
2013-3-11,54,42,32,-100,-100,-100,0,0,100,0.00,40.00,12,5,0,0.00
2013-3-12,35,29,25,-100,-100,-100,0,0,100,0.00,40.00,8,4,0,0.00
2013-3-13,64,53,35,-100,-100,-100,0,0,100,0.00,40.00,7,3,0,0.00
2013-3-14,70,55,39,-100,-100,-100,0,0,100,0.00,40.00,7,2,0,0.00
2013-3-15,74,60,43,-100,-100,-100,0,0,100,0.00,40.00,11,4,0,0.00
2013-3-16,54,47,41,-100,-100,-100,0,0,100,0.00,40.00,7,3,0,0.00
2013-3-17,56,41,29,-100,-100,-100,0,0,100,0.00,40.00,13,6,0,0.00
2013-3-18,49,40,27,-100,-100,-100,0,0,100,0.00,40.00,12,7,0,0.00
2013-3-19,53,41,27,-100,-100,-100,0,0,100,0.00,40.00,11,7,0,0.00
2013-3-20,44,33,19,-100,-100,-100,0,0,100,0.00,40.00,3,2,0,0.00
2013-3-21,54,40,30,-100,-100,-100,0,0,100,0.00,40.00,13,6,0,0.00
2013-3-22,41,32,25,-100,-100,-100,0,0,100,0.00,40.00,6,4,0,0.00
2013-3-23,25,21,15,-100,-100,-100,0,0,100,0.00,40.00,9,5,0,0.00
2013-3-24,31,21,9,-100,-100,-100,0,0,100,0.00,40.00,9,4,0,0.00
2013-3-25,34,24,14,-100,-100,-100,0,0,100,0.00,40.00,9,4,0,0.00
2013-3-26,47,34,16,-100,-100,-100,0,0,100,0.00,40.00,3,2,0,0.00
2013-3-27,53,43,32,-100,-100,-100,0,0,100,0.00,40.00,7,4,0,0.00
2013-3-28,64,49,30,-100,-100,-100,0,0,100,0.00,40.00,7,3,0,0.00
2013-3-29,67,53,37,-100,-100,-100,0,0,100,0.00,40.00,10,4,0,0.00
2013-3-30,64,50,39,-100,-100,-100,0,0,100,0.00,40.00,12,5,0,0.00
2013-3-31,70,50,28,-100,-100,-100,0,0,100,0.00,40.00,7,3,0,0.00
2013-4-1,52,41,29,-100,-100,-100,0,0,100,0.00,40.00,4,3,0,0.00
2013-4-2,42,39,36,-100,-100,-100,0,0,100,0.00,40.00,5,3,0,0.00
2013-4-3,63,48,36,-100,-100,-100,0,0,100,0.00,40.00,7,4,0,0.00
2013-4-4,70,55,36,-100,-100,-100,0,0,100,0.00,40.00,8,3,0,0.00
2013-4-5,72,55,46,-100,-100,-100,0,0,100,0.00,40.00,13,4,0,0.00
2013-4-6,64,56,45,-100,-100,-100,0,0,100,0.00,40.00,8,4,0,0.00
2013-4-7,64,51,39,-100,-100,-100,0,0,100,0.00,40.00,9,4,0,0.00
2013-4-8,65,45,29,-100,-100,-100,0,0,100,0.00,40.00,17,7,0,0.00
2013-4-9,24,20,15,-100,-100,-100,0,0,100,0.00,40.00,11,8,0,0.00
2013-4-10,29,21,11,-100,-100,-100,0,0,100,0.00,40.00,8,5,0,0.00
2013-4-11,54,40,21,-100,-100,-100,0,0,100,0.00,40.00,11,5,0,0.00
2013-4-12,54,43,33,-100,-100,-100,0,0,100,0.00,40.00,10,5,0,0.00
2013-4-13,61,47,31,-100,-100,-100,0,0,100,0.00,40.00,13,4,0,0.00
2013-4-14,45,42,39,-100,-100,-100,0,0,100,0.00,40.00,13,9,0,0.00
2013-4-15,31,27,24,-100,-100,-100,0,0,100,0.00,40.00,5,2,0,0.00
2013-4-16,32,29,26,-100,-100,-100,0,0,100,0.00,40.00,5,2,0,0.00
2013-4-17,29,26,21,-100,-100,-100,0,0,100,0.00,40.00,9,5,0,0.00
2013-4-18,40,28,14,-100,-100,-100,0,0,100,0.00,40.00,10,5,0,0.00
2013-4-19,51,39,22,-100,-100,-100,0,0,100,0.00,40.00,7,3,0,0.00
2013-4-20,58,46,33,-100,-100,-100,0,0,100,0.00,40.00,6,2,0,0.00
2013-4-21,61,49,35,-100,-100,-100,0,0,100,0.00,40.00,5,3,0,0.00
2013-4-22,42,31,24,-100,-100,-100,0,0,100,0.00,40.00,11,5,0,0.00
2013-4-23,32,26,19,-100,-100,-100,0,0,100,0.00,40.00,6,3,0,0.00
2013-4-24,56,41,23,-100,-100,-100,0,0,100,0.00,40.00,6,3,0,0.00
2013-4-25,65,49,29,-100,-100,-100,0,0,100,0.00,40.00,5,2,0,0.00
2013-4-26,71,59,43,-100,-100,-100,0,0,100,0.00,40.00,6,3,0,0.00
2013-4-27,76,61,37,-100,-100,-100,0,0,100,0.00,40.00,9,5,0,0.00
2013-4-28,79,66,45,-100,-100,-100,0,0,100,0.00,40.00,9,4,0,0.00
2013-4-29,79,66,52,-100,-100,-100,0,0,100,0.00,40.00,9,4,0,0.00
2013-4-30,55,47,33,-100,-100,-100,0,0,100,0.00,40.00,9,4,0,0.00
2013-5-1,32,31,26,-100,-100,-100,0,0,100,0.00,40.00,5,3,0,0.00
2013-5-2,32,22,18,-100,-100,-100,0,0,100,0.00,40.00,3,2,0,0.00
2013-5-3,60,51,38,-100,-100,-100,0,0,100,0.00,40.00,7,3,0,0.00
2013-5-4,60,49,40,-100,-100,-100,0,0,100,0.00,40.00,4,3,0,0.00
2013-5-6,68,56,40,-100,-100,-100,0,0,100,0.00,40.00,5,4,0,0.00
2013-5-7,68,57,43,-100,-100,-100,0,0,100,0.00,40.00,6,4,0,0.00
2013-5-8,67,56,49,-100,-100,-100,0,0,100,0.00,40.00,8,4,0,0.00
2013-5-9,62,54,47,-100,-100,-100,0,0,100,0.00,40.00,8,4,0,0.00
2013-5-10,69,56,41,-100,-100,-100,0,0,100,0.00,40.00,9,3,0,0.00
2013-5-11,66,56,48,-100,-100,-100,0,0,100,0.00,40.00,7,3,0,0.00
2013-5-12,80,68,48,-100,-100,-100,0,0,100,0.00,40.00,9,4,0,0.00
2013-5-13,87,73,52,-100,-100,-100,0,0,100,0.00,40.00,6,3,0,0.00
2013-5-14,83,73,54,-100,-100,-100,0,0,100,0.00,40.00,7,3,0,0.00
2013-5-15,85,77,68,-100,-100,-100,0,0,100,0.00,40.00,13,6,0,0.00
2013-5-16,83,65,57,-100,-100,-100,0,0,100,0.00,40.00,7,4,0,0.00
2013-5-17,86,70,54,-100,-100,-100,0,0,100,0.00,40.00,6,3,0,0.00
2013-5-18,77,66,53,-100,-100,-100,0,0,100,0.00,40.00,9,4,0,0.00
2013-5-19,70,63,56,-100,-100,-100,0,0,100,0.00,40.00,10,6,0,0.00
2013-5-20,62,56,47,-100,-100,-100,0,0,100,0.00,40.00,14,7,0,0.00
2013-5-21,69,60,47,-100,-100,-100,0,0,100,0.00,40.00,10,6,0,0.00
2013-5-22,77,62,41,-100,-100,-100,0,0,100,0.00,40.00,5,3,0,0.00
2013-5-23,68,58,49,-100,-100,-100,0,0,100,0.00,40.00,6,4,0,0.00
2013-5-24,86,68,48,-100,-100,-100,0,0,100,0.00,40.00,4,3,0,0.00
2013-5-25,87,73,52,-100,-100,-100,0,0,100,0.00,40.00,5,3,0,0.00
2013-5-26,84,72,57,-100,-100,-100,0,0,100,0.00,40.00,7,3,0,0.00
2013-5-27,82,69,49,-100,-100,-100,0,0,100,0.00,40.00,7,3,0,0.00
2013-5-28,80,66,50,-100,-100,-100,0,0,100,0.00,40.00,12,4,0,0.00
2013-5-29,65,55,47,-100,-100,-100,0,0,100,0.00,40.00,5,2,0,0.00
2013-5-30,69,64,57,-100,-100,-100,0,0,100,0.00,40.00,13,9,0,0.00
2013-5-31,71,62,45,-100,-100,-100,0,0,100,0.00,40.00,11,7,0,0.00
2013-6-1,72,62,54,-100,-100,-100,0,0,100,0.00,40.00,10,5,0,0.00
2013-6-2,81,64,43,-100,-100,-100,0,0,100,0.00,40.00,6,3,0,0.00
2013-6-3,87,72,48,-100,-100,-100,0,0,100,0.00,40.00,7,3,0,0.00
2013-6-4,74,63,52,-100,-100,-100,0,0,100,0.00,40.00,8,4,0,0.00
2013-6-5,63,55,49,-100,-100,-100,0,0,100,0.00,40.00,5,3,0,0.00
2013-6-6,82,67,44,-100,-100,-100,0,0,100,0.00,40.00,4,2,0,0.00
2013-6-7,84,69,54,-100,-100,-100,0,0,100,0.00,40.00,5,3,0,0.00
2013-6-8,78,68,57,-100,-100,-100,0,0,100,0.00,40.00,12,6,0,0.00
2013-6-9,88,72,50,-100,-100,-100,0,0,100,0.00,40.00,6,3,0,0.00
2013-6-10,94,74,55,-100,-100,-100,0,0,100,0.00,40.00,6,3,0,0.00
2013-6-11,95,86,69,-100,-100,-100,0,0,100,0.00,40.00,7,4,0,0.00
2013-6-12,88,75,56,-100,-100,-100,0,0,100,0.00,40.00,7,3,0,0.00
2013-6-13,81,68,58,-100,-100,-100,0,0,100,0.00,40.00,4,2,0,0.00
2013-6-14,91,76,57,-100,-100,-100,0,0,100,0.00,40.00,6,3,0,0.00
2013-6-15,79,70,55,-100,-100,-100,0,0,100,0.00,40.00,5,3,0,0.00
2013-6-16,81,72,57,-100,-100,-100,0,0,100,0.00,40.00,7,3,0,0.00
2013-6-17,81,67,54,-100,-100,-100,0,0,100,0.00,40.00,5,2,0,0.00
2013-6-18,86,71,60,-100,-100,-100,0,0,100,0.00,40.00,5,3,0,0.00
2013-6-19,94,75,53,-100,-100,-100,0,0,100,0.00,40.00,8,3,0,0.00
2013-6-20,83,72,64,-100,-100,-100,0,0,100,0.00,40.00,6,4,0,0.00
2013-6-22,88,76,64,-100,-100,-100,0,0,100,0.00,40.00,7,4,0,0.00
2013-6-23,85,70,52,-100,-100,-100,0,0,100,0.00,40.00,5,3,0,0.00
2013-6-24,91,77,59,-100,-100,-100,0,0,100,0.00,40.00,8,4,0,0.00
2013-6-25,91,80,65,-100,-100,-100,0,0,100,0.00,40.00,10,4,0,0.00
2013-6-26,96,80,60,-100,-100,-100,0,0,100,0.00,40.00,4,2,0,0.00
2013-6-27,97,87,67,-100,-100,-100,0,0,100,0.00,40.00,6,3,0,0.00
2013-6-28,97,79,64,-100,-100,-100,0,0,100,0.00,40.00,13,4,0,0.00
2013-6-29,87,76,61,-100,-100,-100,0,0,100,0.00,40.00,6,3,0,0.00
2013-6-30,83,73,63,-100,-100,-100,0,0,100,0.00,40.00,4,3,0,0.00
2013-7-1,79,72,64,-100,-100,-100,0,0,100,0.00,40.00,5,3,0,0.00
2013-7-2,85,72,56,-100,-100,-100,0,0,100,0.00,40.00,4,2,0,0.00
2013-7-3,88,77,60,-100,-100,-100,0,0,100,0.00,40.00,5,2,0,0.00
2013-7-4,94,83,67,-100,-100,-100,0,0,100,0.00,40.00,6,3,0,0.00
2013-7-5,86,73,64,-100,-100,-100,0,0,100,0.00,40.00,5,2,0,0.00
2013-7-6,90,78,67,-100,-100,-100,0,0,100,0.00,40.00,7,3,0,0.00
2013-7-7,85,76,66,-100,-100,-100,0,0,100,0.00,40.00,9,3,0,0.00
2013-7-8,90,78,63,-100,-100,-100,0,0,100,0.00,40.00,8,3,0,0.00
2013-7-9,94,81,61,-100,-100,-100,0,0,100,0.00,40.00,8,3,0,0.00
2013-7-10,90,80,70,-100,-100,-100,0,0,100,0.00,40.00,5,3,0,0.00
2013-7-11,99,82,61,-100,-100,-100,0,0,100,0.00,40.00,7,4,0,0.00
2013-7-12,90,75,68,-100,-100,-100,0,0,100,0.00,40.00,5,2,0,0.00
2013-7-13,89,75,64,-100,-100,-100,0,0,100,0.00,40.00,5,2,0,0.00
2013-7-14,81,73,61,-100,-100,-100,0,0,100,0.00,40.00,6,3,0,0.00
2013-7-15,79,73,66,-100,-100,-100,0,0,100,0.00,40.00,7,4,0,0.00
2013-7-16,85,74,54,-100,-100,-100,0,0,100,0.00,40.00,5,4,0,0.00
2013-7-17,91,76,59,-100,-100,-100,0,0,100,0.00,40.00,5,2,0,0.00
2013-7-18,92,72,62,-100,-100,-100,0,0,100,0.00,40.00,9,4,0,0.00
2013-7-19,81,73,62,-100,-100,-100,0,0,100,0.00,40.00,5,3,0,0.00
2013-7-20,87,72,60,-100,-100,-100,0,0,100,0.00,40.00,8,3,0,0.00
2013-7-21,85,72,56,-100,-100,-100,0,0,100,0.00,40.00,4,3,0,0.00
2013-7-22,93,80,58,-100,-100,-100,0,0,100,0.00,40.00,4,3,0,0.00
2013-7-23,88,75,59,-100,-100,-100,0,0,100,0.00,40.00,5,2,0,0.00
2013-7-24,83,73,63,-100,-100,-100,0,0,100,0.00,40.00,7,3,0,0.00
2013-7-25,76,67,60,-100,-100,-100,0,0,100,0.00,40.00,4,2,0,0.00
2013-7-26,86,72,58,-100,-100,-100,0,0,100,0.00,40.00,6,4,0,0.00
2013-7-27,74,67,56,-100,-100,-100,0,0,100,0.00,40.00,4,3,0,0.00
2013-7-28,72,64,60,-100,-100,-100,0,0,100,0.00,40.00,6,2,0,0.00
2013-7-29,77,68,60,-100,-100,-100,0,0,100,0.00,40.00,8,2,0,0.00
2013-7-30,88,74,59,-100,-100,-100,0,0,100,0.00,40.00,3,2,0,0.00
2013-7-31,90,75,58,-100,-100,-100,0,0,100,0.00,40.00,6,2,0,0.00
2013-8-1,86,74,58,-100,-100,-100,0,0,100,0.00,40.00,6,3,0,0.00
2013-8-2,89,75,59,-100,-100,-100,0,0,100,0.00,40.00,5,3,0,0.00
2013-8-3,85,70,63,-100,-100,-100,0,0,100,0.00,40.00,10,4,0,0.00
2013-8-4,83,71,55,-100,-100,-100,0,0,100,0.00,40.00,3,2,0,0.00
2013-8-5,86,73,58,-100,-100,-100,0,0,100,0.00,40.00,5,3,0,0.00
2013-8-6,86,72,55,-100,-100,-100,0,0,100,0.00,40.00,6,3,0,0.00
2013-8-7,74,67,59,-100,-100,-100,0,0,100,0.00,40.00,6,3,0,0.00
2013-8-8,74,67,60,-100,-100,-100,0,0,100,0.00,40.00,5,3,0,0.00
2013-8-9,78,68,52,-100,-100,-100,0,0,100,0.00,40.00,5,2,0,0.00
2013-8-10,87,72,52,-100,-100,-100,0,0,100,0.00,40.00,5,2,0,0.00
2013-8-11,81,70,60,-100,-100,-100,0,0,100,0.00,40.00,4,2,0,0.00
2013-8-12,83,68,56,-100,-100,-100,0,0,100,0.00,40.00,5,3,0,0.00
2013-8-13,79,68,53,-100,-100,-100,0,0,100,0.00,40.00,6,3,0,0.00
2013-8-14,81,69,53,-100,-100,-100,0,0,100,0.00,40.00,7,3,0,0.00
2013-8-15,87,66,52,-100,-100,-100,0,0,100,0.00,40.00,4,2,0,0.00
2013-8-16,90,75,55,-100,-100,-100,0,0,100,0.00,40.00,5,2,0,0.00
2013-8-17,94,75,59,-100,-100,-100,0,0,100,0.00,40.00,5,2,0,0.00
2013-8-18,88,75,59,-100,-100,-100,0,0,100,0.00,40.00,9,2,0,0.00
2013-8-19,95,73,56,-100,-100,-100,0,0,100,0.00,40.00,5,2,0,0.00
2013-8-20,96,80,59,-100,-100,-100,0,0,100,0.00,40.00,7,2,0,0.00
2013-8-21,91,80,70,-100,-100,-100,0,0,100,0.00,40.00,5,3,0,0.00
2013-8-22,81,73,61,-100,-100,-100,0,0,100,0.00,40.00,4,2,0,0.00
2013-8-23,88,74,60,-100,-100,-100,0,0,100,0.00,40.00,7,3,0,0.00
2013-8-24,89,73,58,-100,-100,-100,0,0,100,0.00,40.00,11,2,0,0.00
2013-8-25,90,77,61,-100,-100,-100,0,0,100,0.00,40.00,7,3,0,0.00
2013-8-26,92,80,63,-100,-100,-100,0,0,100,0.00,40.00,5,3,0,0.00
2013-8-27,89,75,63,-100,-100,-100,0,0,100,0.00,40.00,5,2,0,0.00
2013-8-28,91,86,73,-100,-100,-100,0,0,100,0.00,40.00,3,2,0,0.00
2013-8-29,92,76,61,-100,-100,-100,0,0,100,0.00,40.00,4,2,0,0.00
2013-8-30,88,77,62,-100,-100,-100,0,0,100,0.00,40.00,5,2,0,0.00
2013-8-31,92,74,61,-100,-100,-100,0,0,100,0.00,40.00,7,3,0,0.00
2013-9-1,79,71,65,-100,-100,-100,0,0,100,0.00,40.00,7,3,0,0.00
2013-9-2,90,75,58,-100,-100,-100,0,0,100,0.00,40.00,5,2,0,0.00
2013-9-3,92,79,62,-100,-100,-100,0,0,100,0.00,40.00,6,3,0,0.00
2013-9-4,92,79,65,-100,-100,-100,0,0,100,0.00,40.00,4,2,0,0.00
2013-9-5,91,79,66,-100,-100,-100,0,0,100,0.00,40.00,5,2,0,0.00
2013-9-6,95,80,67,-100,-100,-100,0,0,100,0.00,40.00,7,3,0,0.00
2013-9-7,94,77,61,-100,-100,-100,0,0,100,0.00,40.00,6,2,0,0.00
2013-9-8,92,77,60,-100,-100,-100,0,0,100,0.00,40.00,6,3,0,0.00
2013-9-9,82,68,60,-100,-100,-100,0,0,100,0.00,40.00,8,3,0,0.00
2013-9-10,66,61,58,-100,-100,-100,0,0,100,0.00,40.00,3,2,0,0.00
2013-9-11,64,61,59,-100,-100,-100,0,0,100,0.00,40.00,4,2,0,0.00
2013-9-12,63,61,58,-100,-100,-100,0,0,100,0.00,40.00,4,2,0,0.00
2013-9-13,76,65,59,-100,-100,-100,0,0,100,0.00,40.00,3,2,0,0.00
2013-9-14,77,64,55,-100,-100,-100,0,0,100,0.00,40.00,5,2,0,0.00
2013-9-15,60,57,54,-100,-100,-100,0,0,100,0.00,40.00,4,2,0,0.00
2013-9-16,72,61,53,-100,-100,-100,0,0,100,0.00,40.00,4,2,0,0.00
2013-9-17,85,69,50,-100,-100,-100,0,0,100,0.00,40.00,6,2,0,0.00
2013-9-18,70,63,58,-100,-100,-100,0,0,100,0.00,40.00,5,2,0,0.00
2013-9-19,67,59,50,-100,-100,-100,0,0,100,0.00,40.00,7,2,0,0.00
2013-9-20,72,59,44,-100,-100,-100,0,0,100,0.00,40.00,5,2,0,0.00
2013-9-21,82,64,45,-100,-100,-100,0,0,100,0.00,40.00,5,2,0,0.00
2013-9-22,78,64,52,-100,-100,-100,0,0,100,0.00,40.00,6,3,0,0.00
2013-9-23,68,60,50,-100,-100,-100,0,0,100,0.00,40.00,12,7,0,0.00
2013-9-24,74,59,41,-100,-100,-100,0,0,100,0.00,40.00,6,2,0,0.00
2013-9-25,78,62,45,-100,-100,-100,0,0,100,0.00,40.00,6,2,0,0.00
2013-9-26,69,58,43,-100,-100,-100,0,0,100,0.00,40.00,5,2,0,0.00
2013-9-27,55,47,42,-100,-100,-100,0,0,100,0.00,40.00,3,2,0,0.00
2013-9-28,66,49,35,-100,-100,-100,0,0,100,0.00,40.00,5,2,0,0.00
2013-9-29,75,58,39,-100,-100,-100,0,0,100,0.00,40.00,4,2,0,0.00
2013-9-30,76,62,47,-100,-100,-100,0,0,100,0.00,40.00,3,2,0,0.00
2013-10-1,71,60,53,-100,-100,-100,0,0,100,0.00,40.00,5,2,0,0.00
2013-10-2,78,61,43,-100,-100,-100,0,0,100,0.00,40.00,6,2,0,0.00
2013-10-3,63,52,40,-100,-100,-100,0,0,100,0.00,40.00,4,2,0,0.00
2013-10-4,43,39,34,-100,-100,-100,0,0,100,0.00,40.00,12,8,0,0.00
2013-10-5,61,51,39,-100,-100,-100,0,0,100,0.00,40.00,10,5,0,0.00
2013-10-6,40,40,40,-100,-100,-100,0,0,100,0.00,40.00,2,2,0,0.00
2013-10-7,75,60,35,-100,-100,-100,0,0,100,0.00,40.00,5,2,0,0.00
2013-10-8,79,59,46,-100,-100,-100,0,0,100,0.00,40.00,4,2,0,0.00
2013-10-9,65,55,44,-100,-100,-100,0,0,100,0.00,40.00,4,2,0,0.00
2013-10-10,57,51,44,-100,-100,-100,0,0,100,0.00,40.00,7,2,0,0.00
2013-10-11,59,54,42,-100,-100,-100,0,0,100,0.00,40.00,10,6,0,0.00
2013-10-12,57,46,42,-100,-100,-100,0,0,100,0.00,40.00,4,2,0,0.00
2013-10-13,62,50,36,-100,-100,-100,0,0,100,0.00,40.00,3,2,0,0.00
2013-10-14,50,47,41,-100,-100,-100,0,0,100,0.00,40.00,12,7,0,0.00
2013-10-15,46,41,34,-100,-100,-100,0,0,100,0.00,40.00,8,4,0,0.00
2013-10-16,57,42,26,-100,-100,-100,0,0,100,0.00,40.00,4,2,0,0.00
2013-10-17,46,40,34,-100,-100,-100,0,0,100,0.00,40.00,5,3,0,0.00
2013-10-18,47,38,32,-100,-100,-100,0,0,100,0.00,40.00,7,3,0,0.00
2013-10-19,62,44,28,-100,-100,-100,0,0,100,0.00,40.00,5,2,0,0.00
2013-10-20,44,39,34,-100,-100,-100,0,0,100,0.00,40.00,4,2,0,0.00
2013-10-21,58,47,28,-100,-100,-100,0,0,100,0.00,40.00,9,3,0,0.00
2013-10-22,65,51,34,-100,-100,-100,0,0,100,0.00,40.00,7,3,0,0.00
2013-10-23,66,52,34,-100,-100,-100,0,0,100,0.00,40.00,6,3,0,0.00
2013-10-24,53,40,32,-100,-100,-100,0,0,100,0.00,40.00,4,2,0,0.00
2013-10-25,73,50,31,-100,-100,-100,0,0,100,0.00,40.00,4,2,0,0.00
2013-10-26,62,48,35,-100,-100,-100,0,0,100,0.00,40.00,7,2,0,0.00
2013-10-27,71,53,33,-100,-100,-100,0,0,100,0.00,40.00,3,2,0,0.00
2013-10-28,44,35,32,-100,-100,-100,0,0,100,0.00,40.00,4,3,0,0.00
2013-10-29,39,35,32,-100,-100,-100,0,0,100,0.00,40.00,4,2,0,0.00
2013-10-30,44,36,32,-100,-100,-100,0,0,100,0.00,40.00,3,2,0,0.00
2013-10-31,57,44,27,-100,-100,-100,0,0,100,0.00,40.00,8,3,0,0.00
2013-11-1,54,45,35,-100,-100,-100,0,0,100,0.00,40.00,14,7,0,0.00
2013-11-2,58,40,25,-100,-100,-100,0,0,100,0.00,40.00,5,2,0,0.00
2013-11-3,66,49,35,-100,-100,-100,0,0,100,0.00,40.00,10,4,0,0.00
2013-11-4,41,36,30,-100,-100,-100,0,0,100,0.00,40.00,10,5,0,0.00
2013-11-5,44,36,24,-100,-100,-100,0,0,100,0.00,40.00,11,7,0,0.00
2013-11-6,52,37,22,-100,-100,-100,0,0,100,0.00,40.00,10,4,0,0.00
2013-11-7,55,40,26,-100,-100,-100,0,0,100,0.00,40.00,4,2,0,0.00
2013-11-8,63,47,29,-100,-100,-100,0,0,100,0.00,40.00,5,2,0,0.00
2013-11-9,54,42,32,-100,-100,-100,0,0,100,0.00,40.00,3,2,0,0.00
2013-11-10,67,47,32,-100,-100,-100,0,0,100,0.00,40.00,6,2,0,0.00
2013-11-11,57,39,31,-100,-100,-100,0,0,100,0.00,40.00,6,3,0,0.00
2013-11-12,55,38,27,-100,-100,-100,0,0,100,0.00,40.00,3,2,0,0.00
2013-11-13,65,49,27,-100,-100,-100,0,0,100,0.00,40.00,5,2,0,0.00
2013-11-14,56,47,41,-100,-100,-100,0,0,100,0.00,40.00,8,4,0,0.00
2013-11-15,62,45,31,-100,-100,-100,0,0,100,0.00,40.00,8,4,0,0.00
2013-11-16,56,41,29,-100,-100,-100,0,0,100,0.00,40.00,13,5,0,0.00
2013-11-17,56,43,32,-100,-100,-100,0,0,100,0.00,40.00,15,6,0,0.00
2013-11-18,59,40,25,-100,-100,-100,0,0,100,0.00,40.00,4,2,0,0.00
2013-11-19,52,40,26,-100,-100,-100,0,0,100,0.00,40.00,4,1,0,0.00
2013-11-20,58,44,29,-100,-100,-100,0,0,100,0.00,40.00,11,3,0,0.00
2013-11-21,25,17,15,-100,-100,-100,0,0,100,0.00,40.00,7,3,0,0.00
2013-11-22,31,24,15,-100,-100,-100,0,0,100,0.00,40.00,3,2,0,0.00
2013-11-23,36,27,25,-100,-100,-100,0,0,100,0.00,40.00,6,2,0,0.00
2013-11-24,43,30,20,-100,-100,-100,0,0,100,0.00,40.00,8,3,0,0.00
2013-11-25,43,38,29,-100,-100,-100,0,0,100,0.00,40.00,8,4,0,0.00
2013-11-26,52,38,27,-100,-100,-100,0,0,100,0.00,40.00,9,3,0,0.00
2013-11-27,60,40,22,-100,-100,-100,0,0,100,0.00,40.00,4,2,0,0.00
2013-11-28,47,34,24,-100,-100,-100,0,0,100,0.00,40.00,3,1,0,0.00
2013-11-29,61,42,25,-100,-100,-100,0,0,100,0.00,40.00,5,2,0,0.00
2013-11-30,56,39,26,-100,-100,-100,0,0,100,0.00,40.00,4,2,0,0.00
2013-12-1,56,42,29,-100,-100,-100,0,0,100,0.00,40.00,5,2,0,0.00
2013-12-2,58,52,44,-100,-100,-100,0,0,100,0.00,40.00,10,6,0,0.00
2013-12-3,45,28,11,-100,-100,-100,0,0,100,0.00,40.00,8,4,0,0.00
2013-12-4,12,8,2,-100,-100,-100,0,0,100,0.00,40.00,10,5,0,0.00
2013-12-5,10,3,-7,-100,-100,-100,0,0,100,0.00,40.00,4,3,0,0.00
2013-12-6,7,1,-5,-100,-100,-100,0,0,100,0.00,40.00,4,3,0,0.00
2013-12-7,9,3,-6,-100,-100,-100,0,0,100,0.00,40.00,4,2,0,0.00
2013-12-8,17,8,3,-100,-100,-100,0,0,100,0.00,40.00,5,2,0,0.00
2013-12-9,16,8,-3,-100,-100,-100,0,0,100,0.00,40.00,4,3,0,0.00
2013-12-10,43,26,9,-100,-100,-100,0,0,100,0.00,40.00,13,5,0,0.00
2013-12-11,31,20,12,-100,-100,-100,0,0,100,0.00,40.00,6,2,0,0.00
2013-12-12,50,29,11,-100,-100,-100,0,0,100,0.00,40.00,3,2,0,0.00
2013-12-13,46,32,17,-100,-100,-100,0,0,100,0.00,40.00,6,2,0,0.00
2013-12-14,43,32,20,-100,-100,-100,0,0,100,0.00,40.00,8,3,0,0.00
2013-12-15,50,37,23,-100,-100,-100,0,0,100,0.00,40.00,5,2,0,0.00
2013-12-16,63,51,35,-100,-100,-100,0,0,100,0.00,40.00,10,4,0,0.00
2013-12-17,59,41,28,-100,-100,-100,0,0,100,0.00,40.00,7,2,0,0.00
2013-12-18,57,46,32,-100,-100,-100,0,0,100,0.00,40.00,3,2,0,0.00
2013-12-19,41,31,17,-100,-100,-100,0,0,100,0.00,40.00,8,4,0,0.00
2013-12-20,25,21,16,-100,-100,-100,0,0,100,0.00,40.00,4,2,0,0.00
2013-12-21,32,25,15,-100,-100,-100,0,0,100,0.00,40.00,5,2,0,0.00
2013-12-22,38,27,18,-100,-100,-100,0,0,100,0.00,40.00,6,2,0,0.00
2013-12-23,30,22,17,-100,-100,-100,0,0,100,0.00,40.00,4,2,0,0.00
2013-12-24,51,33,20,-100,-100,-100,0,0,100,0.00,40.00,15,6,0,0.00
2013-12-25,43,28,18,-100,-100,-100,0,0,100,0.00,40.00,6,2,0,0.00
2013-12-26,52,37,23,-100,-100,-100,0,0,100,0.00,40.00,6,2,0,0.00
2013-12-27,57,39,23,-100,-100,-100,0,0,100,0.00,40.00,5,2,0,0.00
2013-12-28,52,34,24,-100,-100,-100,0,0,100,0.00,40.00,10,4,0,0.00
2013-12-29,35,25,13,-100,-100,-100,0,0,100,0.00,40.00,8,3,0,0.00
2013-12-30,48,36,24,-100,-100,-100,0,0,100,0.00,40.00,6,3,0,0.00
2013-12-31,57,43,25,-100,-100,-100,0,0,100,0.00,40.00,7,3,0,0.00
2014-1-1,40,32,20,-100,-100,-100,0,0,100,0.00,40.00,12,4,0,0.00
2014-1-2,42,28,16,-100,-100,-100,0,0,100,0.00,40.00,3,2,0,0.00